createdAt,value
2022-09-30T00:02:24.743Z,13.9
2022-09-30T00:07:26.859Z,13.8
2022-09-30T00:12:29.089Z,13.8
2022-09-30T00:17:31.363Z,13.7
2022-09-30T00:22:38.417Z,13.5
2022-09-30T00:27:40.521Z,13.6
2022-09-30T00:32:42.594Z,13.5
2022-09-30T00:37:45.926Z,13.5
2022-09-30T00:42:47.869Z,13.5
2022-09-30T00:47:49.980Z,13.4
2022-09-30T00:52:52.087Z,13.4
2022-09-30T00:57:53.975Z,13.4
2022-09-30T01:02:56.964Z,13.3
2022-09-30T01:08:00.376Z,13
2022-09-30T01:13:02.257Z,13
2022-09-30T01:18:04.656Z,13.1
2022-09-30T01:23:07.838Z,13.1
2022-09-30T01:28:09.954Z,13.1
2022-09-30T01:33:12.278Z,13
2022-09-30T01:38:14.319Z,13
2022-09-30T01:43:16.267Z,13.1
2022-09-30T01:48:18.146Z,13.1
2022-09-30T01:53:20.638Z,13.3
2022-09-30T01:58:26.827Z,13.2
2022-09-30T02:03:28.798Z,13.4
2022-09-30T02:08:30.794Z,13.4
2022-09-30T02:13:33.755Z,13.5
2022-09-30T02:18:38.727Z,13.5
2022-09-30T02:23:41.174Z,13.5
2022-09-30T02:28:44.415Z,13.6
2022-09-30T02:33:46.300Z,13.5
2022-09-30T02:38:52.918Z,13.6
2022-09-30T02:43:54.883Z,13.5
2022-09-30T02:48:58.002Z,13.5
2022-09-30T02:54:00.027Z,13.5
2022-09-30T02:59:02.279Z,13.5
2022-09-30T03:04:05.376Z,13.5
2022-09-30T03:09:09.301Z,13.4
2022-09-30T03:14:11.322Z,13.4
2022-09-30T03:19:13.203Z,13.4
2022-09-30T03:24:15.564Z,13.4
2022-09-30T03:29:17.795Z,13.4
2022-09-30T03:34:19.821Z,13.3
2022-09-30T03:39:22.295Z,13.3
2022-09-30T03:44:24.428Z,13.3
2022-09-30T03:49:26.367Z,13.3
2022-09-30T03:54:28.813Z,13.3
2022-09-30T03:59:30.828Z,13.3
2022-09-30T04:04:32.811Z,13.3
2022-09-30T04:09:35.259Z,13.3
2022-09-30T04:14:37.218Z,13.3
2022-09-30T04:19:39.126Z,13.4
2022-09-30T04:24:41.745Z,13.4
2022-09-30T04:29:43.842Z,13.3
2022-09-30T04:34:45.733Z,13.3
2022-09-30T04:39:47.819Z,13.4
2022-09-30T04:44:49.920Z,13.3
2022-09-30T04:49:51.948Z,13.4
2022-09-30T04:54:54.057Z,13.3
2022-09-30T04:59:56.138Z,13.3
2022-09-30T05:04:58.040Z,13.3
2022-09-30T05:09:59.902Z,13.4
2022-09-30T05:15:01.777Z,13.3
2022-09-30T05:20:03.632Z,13.4
2022-09-30T05:25:05.527Z,13.4
2022-09-30T05:30:07.563Z,13.4
2022-09-30T05:35:09.444Z,13.6
2022-09-30T05:40:11.483Z,13.6
2022-09-30T05:50:14.495Z,13.7
2022-09-30T05:55:16.446Z,13.7
2022-09-30T06:00:18.422Z,13.7
2022-09-30T06:05:20.287Z,13.8
2022-09-30T06:15:22.678Z,13.9
2022-09-30T06:20:24.678Z,13.9
2022-09-30T06:25:26.698Z,14
2022-09-30T06:30:36.561Z,14
2022-09-30T06:35:38.529Z,14
2022-09-30T06:40:40.546Z,14.1
2022-09-30T06:45:42.588Z,14.1
2022-09-30T06:51:02.940Z,14.2
2022-09-30T06:55:44.846Z,14.2
2022-09-30T07:00:46.925Z,14.4
2022-09-30T07:05:48.907Z,14.6
2022-09-30T07:10:51.049Z,14.7
2022-09-30T07:15:53.071Z,14.7
2022-09-30T07:20:54.987Z,14.9
2022-09-30T07:25:57.440Z,15.4
2022-09-30T07:31:35.191Z,17.1
2022-09-30T07:36:07.859Z,17.4
2022-09-30T07:41:10.010Z,18.9
2022-09-30T07:46:12.822Z,17.2
2022-09-30T07:51:14.906Z,17.1
2022-09-30T07:56:16.803Z,16.7
2022-09-30T08:01:18.841Z,16.5
2022-09-30T08:06:20.815Z,16.6
2022-09-30T08:11:22.879Z,16.7
2022-09-30T08:16:24.957Z,17.5
2022-09-30T08:21:27.000Z,19.4
2022-09-30T08:26:28.988Z,20.5
2022-09-30T08:31:31.210Z,20.6
2022-09-30T08:36:33.473Z,20.5
2022-09-30T08:46:35.971Z,22.3
2022-09-30T08:51:37.956Z,23.8
2022-09-30T08:56:40.118Z,25.2
2022-09-30T09:01:42.115Z,22.5
2022-09-30T09:06:44.039Z,22.1
2022-09-30T09:11:46.068Z,22.1
2022-09-30T09:16:48.476Z,25.2
2022-09-30T09:21:50.491Z,25.1
2022-09-30T09:26:52.494Z,25
2022-09-30T09:31:54.699Z,23.3
2022-09-30T09:36:56.669Z,22
2022-09-30T09:41:58.778Z,24
2022-09-30T09:47:00.798Z,23.2
2022-09-30T09:52:03.205Z,22.6
2022-09-30T09:57:05.108Z,22.5
2022-09-30T10:02:07.218Z,21.5
2022-09-30T10:07:09.251Z,21.5
2022-09-30T10:12:11.135Z,20.6
2022-09-30T10:17:13.174Z,19.9
2022-09-30T10:22:15.526Z,19.1
2022-09-30T10:27:17.922Z,19.1
2022-09-30T10:32:20.299Z,19.1
2022-09-30T10:37:22.310Z,19.2
2022-09-30T10:42:28.582Z,20.3
2022-09-30T10:47:38.351Z,23.7
2022-09-30T10:52:40.381Z,23.7
2022-09-30T10:57:42.335Z,25.9
2022-09-30T11:02:44.459Z,22.6
2022-09-30T11:07:49.805Z,21.1
2022-09-30T11:12:52.414Z,26.2
2022-09-30T11:17:54.263Z,26
2022-09-30T11:22:56.338Z,26.4
2022-09-30T11:27:58.962Z,22
2022-09-30T11:33:01.255Z,21.9
2022-09-30T11:38:03.133Z,20.5
2022-09-30T11:43:09.883Z,20
2022-09-30T11:48:12.111Z,20
2022-09-30T11:53:14.053Z,20.3
2022-09-30T11:58:43.364Z,22.3
2022-09-30T12:03:25.464Z,22.2
2022-09-30T12:08:27.627Z,23.1
2022-09-30T12:13:29.692Z,24.3
2022-09-30T12:18:31.990Z,24.7
2022-09-30T12:23:34.051Z,23.4
2022-09-30T12:28:36.016Z,23.8
2022-09-30T12:33:37.890Z,25.9
2022-09-30T12:38:39.819Z,26.2
2022-09-30T12:43:44.473Z,24.1
2022-09-30T12:49:05.621Z,22.2
2022-09-30T12:54:07.680Z,22
2022-09-30T12:59:09.723Z,22.5
2022-09-30T13:04:11.852Z,23.1
2022-09-30T13:09:14.035Z,23.5
2022-09-30T13:14:16.330Z,22.4
2022-09-30T13:19:18.401Z,21.8
2022-09-30T13:24:20.346Z,22
2022-09-30T13:29:22.361Z,21.8
2022-09-30T13:34:24.324Z,21.6
2022-09-30T13:39:26.252Z,21.9
2022-09-30T13:44:28.117Z,21.8
2022-09-30T13:49:30.497Z,21.7
2022-09-30T13:54:32.657Z,21
2022-09-30T13:59:34.580Z,20.6
2022-09-30T14:04:36.502Z,20.9
2022-09-30T14:09:38.512Z,21.2
2022-09-30T14:14:41.040Z,21.2
2022-09-30T14:19:43.003Z,21.2
2022-09-30T14:24:45.125Z,21.2
2022-09-30T14:29:47.551Z,20.8
2022-09-30T14:34:49.506Z,20.8
2022-09-30T14:39:51.577Z,20.5
2022-09-30T14:44:57.206Z,20.2
2022-09-30T14:49:59.500Z,20.2
2022-09-30T14:55:01.725Z,20.1
2022-09-30T15:00:04.333Z,19.9
2022-09-30T15:05:06.986Z,19.9
2022-09-30T15:10:09.220Z,19.8
2022-09-30T15:15:11.401Z,19.8
2022-09-30T15:20:13.498Z,19.7
2022-09-30T15:25:15.507Z,19.6
2022-09-30T15:30:17.952Z,19.4
2022-09-30T15:35:20.047Z,19.4
2022-09-30T15:40:22.337Z,19.3
2022-09-30T15:45:24.907Z,19
2022-09-30T15:50:27.903Z,18.8
2022-09-30T15:55:29.995Z,18.7
2022-09-30T16:00:32.463Z,18.4
2022-09-30T16:05:34.698Z,18.3
2022-09-30T16:10:36.680Z,18.2
2022-09-30T16:15:39.017Z,17.8
2022-09-30T16:20:41.201Z,17.8
2022-09-30T16:25:43.174Z,17.7
2022-09-30T16:30:45.650Z,17.3
2022-09-30T16:35:47.741Z,17.3
2022-09-30T16:40:49.706Z,17.1
2022-09-30T16:45:52.174Z,16.9
2022-09-30T16:50:54.297Z,16.8
2022-09-30T16:55:57.126Z,16.6
2022-09-30T17:01:00.082Z,16.5
2022-09-30T17:06:02.944Z,16.5
2022-09-30T17:11:05.435Z,16.4
2022-09-30T17:16:08.059Z,16.2
2022-09-30T17:21:10.392Z,16.2
2022-09-30T17:26:12.922Z,16.1
2022-09-30T17:31:15.882Z,15.6
2022-09-30T17:36:20.284Z,15.6
2022-09-30T17:41:22.915Z,15.5
2022-09-30T17:46:25.612Z,15.5
2022-09-30T17:51:28.710Z,15.4
2022-09-30T17:56:31.136Z,15.4
2022-09-30T18:01:34.484Z,15.2
2022-09-30T18:06:37.557Z,15.1
2022-09-30T18:11:45.868Z,14.9
2022-09-30T18:16:47.952Z,14.8
2022-09-30T18:21:50.050Z,15
2022-09-30T18:26:52.122Z,15
2022-09-30T18:31:54.268Z,14.9
2022-09-30T18:36:59.256Z,14.9
2022-09-30T18:42:01.264Z,14.7
2022-09-30T18:47:06.332Z,14.4
2022-09-30T18:52:09.713Z,14.4
2022-09-30T18:57:15.900Z,14.3
2022-09-30T19:02:19.498Z,14.4
2022-09-30T19:07:21.637Z,14.3
2022-09-30T19:12:24.714Z,14.4
2022-09-30T19:17:27.562Z,14.4
2022-09-30T19:22:29.670Z,14.3
2022-09-30T19:27:33.670Z,14.3
2022-09-30T19:32:35.773Z,14.3
2022-09-30T19:37:37.801Z,14.2
2022-09-30T19:42:40.583Z,14.3
2022-09-30T19:47:43.609Z,14.5
2022-09-30T19:52:58.933Z,14.4
2022-09-30T19:57:51.485Z,14.3
2022-09-30T20:02:53.869Z,14.3
2022-09-30T20:07:56.631Z,14.3
2022-09-30T20:12:59.251Z,14.4
2022-09-30T20:18:01.934Z,14.6
2022-09-30T20:23:03.735Z,14.6
2022-09-30T20:28:07.137Z,14.6
2022-09-30T20:33:09.588Z,14.5
2022-09-30T20:38:11.845Z,14.6
2022-09-30T20:43:13.794Z,14.5
2022-09-30T20:48:18.898Z,14.6
2022-09-30T20:53:21.157Z,14.6
2022-09-30T20:58:23.118Z,14.6
2022-09-30T21:03:25.544Z,14.8
2022-09-30T21:08:27.509Z,14.8
2022-09-30T21:13:30.039Z,14.9
2022-09-30T21:18:32.673Z,14.9
2022-09-30T21:23:34.892Z,14.9
2022-09-30T21:28:37.008Z,15
2022-09-30T21:33:39.071Z,15
2022-09-30T21:38:41.152Z,15
2022-09-30T21:43:43.158Z,14.9
2022-09-30T21:48:45.103Z,14.9
2022-09-30T21:53:47.835Z,14.8
2022-09-30T21:58:49.828Z,14.7
2022-09-30T22:03:51.860Z,14.8
2022-09-30T22:08:53.870Z,14.7
2022-09-30T22:13:56.109Z,14.7
2022-09-30T22:18:58.284Z,14.6
2022-09-30T22:24:00.260Z,14.7
2022-09-30T22:29:02.389Z,14.7
2022-09-30T22:34:04.449Z,14.7
2022-09-30T22:39:06.709Z,14.6
2022-09-30T22:44:08.734Z,14.7
2022-09-30T22:49:10.873Z,14.6
2022-09-30T22:54:12.930Z,14.5
2022-09-30T22:59:14.917Z,14.5
2022-09-30T23:04:17.502Z,14.5
2022-09-30T23:09:19.676Z,14.5
2022-09-30T23:14:21.618Z,14.5
2022-09-30T23:19:24.143Z,14.3
2022-09-30T23:24:26.267Z,14.3
2022-09-30T23:29:28.389Z,14.3
2022-09-30T23:34:30.582Z,14.3
2022-09-30T23:39:32.804Z,14.4
2022-09-30T23:44:34.782Z,14.4
2022-09-30T23:49:36.912Z,14.5
2022-09-30T23:54:39.000Z,14.5
2022-09-30T23:59:41.059Z,14.5
